»·PEaware :: SWA2457 KPHX-KLAS

SWA2457 :: KPHX-KLAS

FLIGHT INFORMATION

Flight Status: Arrived
Operator:
Southwest Airlines
More flights by this operator :: More flights under this callsign
Pilot: Garrett E. (679)
Aircraft: BOEING 737-700
(B737)
More flights by this aircraft type
Origin: KPHX Phoenix Sky Harbor Intl
United States
Destination: KLAS McCarran Intl
United States
More flights between these airports :: More routes between these airports
Route: +MAYSA5 SISIE IGM TYSSN5
File this flight plan on PilotEdge
Remarks:
Altitude:
(Current/Filed)
28,000ft
Speed:
(Current/Filed)
450kts
Departed: 03-Jan-18 12:58 PM
Arrived: 03-Jan-18 01:43 PM
Distance/Time
Traveled:
222nm/0:45
Distance/Time
To Go:
Arrived

Flight Plot

Page will automatically refresh every two minutes.

Flight plan parsing failed; only flown route is shown


Map Options




Map Legend


Flown Route
Filed Route
Departure Airport
Arrival Airport
Navaid (VOR, NDB)
Fix

Horizontal Profiles

Position Reports

Time Latitude Longitude Heading Altitude Ground
Speed
03-Jan-18 12:35 33.433645 -111.996048 305 1142ft 0kts
03-Jan-18 12:36 33.433645 -111.996048 305 1142ft 0kts
03-Jan-18 12:37 33.433645 -111.996048 305 1142ft 0kts
03-Jan-18 12:38 33.433645 -111.996048 305 1142ft 0kts
03-Jan-18 12:39 33.433645 -111.996048 305 1142ft 0kts
03-Jan-18 12:40 33.433645 -111.996048 305 1142ft 0kts
03-Jan-18 12:41 33.433645 -111.996048 305 1142ft 0kts
03-Jan-18 12:42 33.433645 -111.996048 305 1142ft 0kts
03-Jan-18 12:43 33.433645 -111.996048 305 1142ft 0kts
03-Jan-18 12:44 33.433645 -111.996048 305 1142ft 0kts
03-Jan-18 12:45 33.433645 -111.996048 305 1142ft 0kts
03-Jan-18 12:46 33.433645 -111.996048 305 1142ft 0kts
03-Jan-18 12:47 33.433645 -111.996048 305 1142ft 0kts
03-Jan-18 12:48 33.433645 -111.996048 305 1142ft 0kts
03-Jan-18 12:49 33.433645 -111.996048 305 1142ft 0kts
03-Jan-18 12:50 33.433645 -111.996048 305 1142ft 0kts
03-Jan-18 12:51 33.433645 -111.996048 305 1142ft 0kts
03-Jan-18 12:52 33.433645 -111.996048 305 1142ft 0kts
03-Jan-18 12:53 33.433783 -111.995714 179 1142ft 0kts
03-Jan-18 12:54 33.433783 -111.995714 179 1142ft 0kts
03-Jan-18 12:55 33.433781 -111.995714 179 1142ft 0kts
03-Jan-18 12:56 33.433780 -111.995714 179 1142ft 0kts
03-Jan-18 12:57 33.433010 -111.995703 177 1142ft 9kts
03-Jan-18 12:58 33.432121 -111.999162 269 1142ft 10kts
03-Jan-18 12:59 33.432110 -112.005431 269 1142ft 24kts
03-Jan-18 13:00 33.432107 -112.012855 270 1142ft 19kts
03-Jan-18 13:01 33.432115 -112.018335 268 1142ft 18kts
03-Jan-18 13:02 33.432115 -112.025709 269 1142ft 20kts
03-Jan-18 13:03 33.431843 -112.026980 181 1142ft 0kts
03-Jan-18 13:04 33.431042 -112.011328 90 1232ft 137kts
03-Jan-18 13:05 33.432463 -111.959255 86 3502ft 183kts
03-Jan-18 13:06 33.437768 -111.883451 70 5607ft 260kts
03-Jan-18 13:07 33.499062 -111.843753 5 9525ft 275kts
03-Jan-18 13:08 33.581427 -111.839787 2 12092ft 328kts
03-Jan-18 13:09 33.675622 -111.840109 350 15399ft 349kts
03-Jan-18 13:10 33.758581 -111.897698 310 18595ft 364kts
03-Jan-18 13:11 33.821354 -111.996081 306 21573ft 376kts
03-Jan-18 13:12 33.884205 -112.097897 305 24249ft 383kts
03-Jan-18 13:13 33.947382 -112.201756 305 26974ft 379kts
03-Jan-18 13:14 34.009831 -112.304894 305 28240ft 381kts
03-Jan-18 13:15 34.086005 -112.392925 317 28239ft 379kts
03-Jan-18 13:16 34.166952 -112.474512 317 28211ft 379kts
03-Jan-18 13:17 34.247823 -112.556232 317 28239ft 379kts
03-Jan-18 13:18 34.329038 -112.638129 318 28281ft 379kts
03-Jan-18 13:19 34.409878 -112.719801 318 28289ft 379kts
03-Jan-18 13:20 34.490518 -112.801892 318 28210ft 379kts
03-Jan-18 13:21 34.571419 -112.884566 317 28177ft 379kts
03-Jan-18 13:22 34.649763 -112.970062 316 28193ft 379kts
03-Jan-18 13:23 34.728111 -113.055993 316 28272ft 379kts
03-Jan-18 13:24 34.809614 -113.144956 317 28279ft 399kts
03-Jan-18 13:25 34.891992 -113.235605 316 28252ft 399kts
03-Jan-18 13:26 34.973441 -113.328096 310 28238ft 399kts
03-Jan-18 13:27 35.033085 -113.441715 299 28248ft 399kts
03-Jan-18 13:28 35.087525 -113.559340 299 28279ft 395kts
03-Jan-18 13:29 35.140977 -113.674034 299 28280ft 389kts
03-Jan-18 13:30 35.193584 -113.788134 299 26786ft 377kts
03-Jan-18 13:31 35.244451 -113.898921 301 24850ft 368kts
03-Jan-18 13:32 35.315266 -113.984771 322 24280ft 360kts
03-Jan-18 13:33 35.395305 -114.059273 322 24281ft 361kts
03-Jan-18 13:34 35.475472 -114.134013 322 24278ft 361kts
03-Jan-18 13:35 35.555580 -114.208409 322 24239ft 361kts
03-Jan-18 13:36 35.635774 -114.283424 322 24236ft 361kts
03-Jan-18 13:37 35.714580 -114.357363 322 22307ft 352kts
03-Jan-18 13:38 35.799915 -114.410724 339 19759ft 341kts
03-Jan-18 13:39 35.887696 -114.451369 339 17113ft 332kts
03-Jan-18 13:40 35.973509 -114.491642 338 14316ft 328kts
03-Jan-18 13:41 36.026344 -114.578919 293 11510ft 325kts
03-Jan-18 13:42 36.058202 -114.679717 293 9310ft 301kts
03-Jan-18 13:43 36.076100 -114.775561 266 7385ft 282kts
03-Jan-18 13:44 36.073946 -114.864735 271 6074ft 239kts
03-Jan-18 13:45 36.073828 -114.928566 271 5265ft 211kts
03-Jan-18 13:46 36.073762 -115.002823 269 4100ft 161kts
03-Jan-18 13:47 36.073723 -115.047992 267 3418ft 157kts
03-Jan-18 13:48 36.073603 -115.110922 271 2427ft 156kts
03-Jan-18 13:49 36.073663 -115.142774 282 2189ft 32kts
03-Jan-18 13:50 36.074653 -115.145602 297 2188ft 1kts
03-Jan-18 13:51 36.076952 -115.146539 356 2188ft 11kts
03-Jan-18 13:52 36.077254 -115.146561 354 2188ft 0kts
03-Jan-18 13:53 36.079659 -115.147505 64 2188ft 9kts

Navigation Log

Ident Type
Flight plan parsing failed, navigation log unavailable